sensor_id;sensor_type;location;lat;lon;timestamp;pressure;altitude;pressure_sealevel;temperature;humidity
34034;BME280;63481;52.588;22.472;2022-12-22T00:00:51;99757.63;;;1.22;100.00
34034;BME280;63481;52.588;22.472;2022-12-22T00:02:02;99758.63;;;1.29;100.00
34034;BME280;63481;52.588;22.472;2022-12-22T00:03:12;99756.34;;;1.30;100.00
34034;BME280;63481;52.588;22.472;2022-12-22T00:04:21;99754.20;;;1.34;99.99
34034;BME280;63481;52.588;22.472;2022-12-22T00:05:30;99754.03;;;1.27;100.00
34034;BME280;63481;52.588;22.472;2022-12-22T00:06:39;99749.91;;;1.29;100.00
34034;BME280;63481;52.588;22.472;2022-12-22T00:07:48;99748.77;;;1.27;99.99
34034;BME280;63481;52.588;22.472;2022-12-22T00:08:57;99741.72;;;1.28;100.00
34034;BME280;63481;52.588;22.472;2022-12-22T00:10:06;99743.66;;;1.26;100.00
34034;BME280;63481;52.588;22.472;2022-12-22T00:11:15;99736.47;;;1.28;100.00
34034;BME280;63481;52.588;22.472;2022-12-22T00:12:25;99737.78;;;1.28;100.00
34034;BME280;63481;52.588;22.472;2022-12-22T00:13:35;99734.30;;;1.23;100.00
34034;BME280;63481;52.588;22.472;2022-12-22T00:14:44;99739.41;;;1.25;99.99
34034;BME280;63481;52.588;22.472;2022-12-22T00:15:54;99735.47;;;1.25;100.00
34034;BME280;63481;52.588;22.472;2022-12-22T00:17:07;99735.47;;;1.25;100.00
34034;BME280;63481;52.588;22.472;2022-12-22T00:18:15;99739.41;;;1.25;99.98
34034;BME280;63481;52.588;22.472;2022-12-22T00:19:26;99738.23;;;1.23;100.00
34034;BME280;63481;52.588;22.472;2022-12-22T00:20:35;99734.98;;;1.29;100.00
34034;BME280;63481;52.588;22.472;2022-12-22T00:21:44;99735.64;;;1.31;100.00
34034;BME280;63481;52.588;22.472;2022-12-22T00:22:53;99738.09;;;1.29;100.00
34034;BME280;63481;52.588;22.472;2022-12-22T00:24:02;99737.61;;;1.29;100.00
34034;BME280;63481;52.588;22.472;2022-12-22T00:25:15;99731.53;;;1.25;100.00
34034;BME280;63481;52.588;22.472;2022-12-22T00:26:24;99739.09;;;1.28;100.00
34034;BME280;63481;52.588;22.472;2022-12-22T00:27:35;99739.41;;;1.29;100.00
34034;BME280;63481;52.588;22.472;2022-12-22T00:28:44;99736.30;;;1.29;100.00
34034;BME280;63481;52.588;22.472;2022-12-22T00:29:53;99738.27;;;1.27;100.00
34034;BME280;63481;52.588;22.472;2022-12-22T00:31:02;99740.55;;;1.26;100.00
34034;BME280;63481;52.588;22.472;2022-12-22T00:32:12;99738.89;;;1.25;100.00
34034;BME280;63481;52.588;22.472;2022-12-22T00:33:22;99742.20;;;1.31;100.00
34034;BME280;63481;52.588;22.472;2022-12-22T00:34:39;99744.52;;;1.34;100.00
34034;BME280;63481;52.588;22.472;2022-12-22T00:35:52;99748.45;;;1.34;100.00
34034;BME280;63481;52.588;22.472;2022-12-22T00:37:03;99749.28;;;1.35;100.00
34034;BME280;63481;52.588;22.472;2022-12-22T00:38:14;99749.12;;;1.32;100.00
34034;BME280;63481;52.588;22.472;2022-12-22T00:39:23;99750.57;;;1.31;100.00
34034;BME280;63481;52.588;22.472;2022-12-22T00:40:33;99747.97;;;1.35;100.00
34034;BME280;63481;52.588;22.472;2022-12-22T00:41:43;99753.40;;;1.33;100.00
34034;BME280;63481;52.588;22.472;2022-12-22T00:42:52;99746.31;;;1.34;100.00
34034;BME280;63481;52.588;22.472;2022-12-22T00:44:01;99746.48;;;1.36;100.00
34034;BME280;63481;52.588;22.472;2022-12-22T00:45:10;99746.66;;;1.35;100.00
34034;BME280;63481;52.588;22.472;2022-12-22T00:46:22;99747.31;;;1.33;100.00
34034;BME280;63481;52.588;22.472;2022-12-22T00:47:31;99740.06;;;1.27;100.00
34034;BME280;63481;52.588;22.472;2022-12-22T00:48:42;99736.78;;;1.25;100.00
34034;BME280;63481;52.588;22.472;2022-12-22T00:49:51;99742.35;;;1.26;100.00
34034;BME280;63481;52.588;22.472;2022-12-22T00:51:00;99740.73;;;1.25;100.00
34034;BME280;63481;52.588;22.472;2022-12-22T00:52:09;99747.63;;;1.30;100.00
34034;BME280;63481;52.588;22.472;2022-12-22T00:53:18;99742.35;;;1.26;100.00
34034;BME280;63481;52.588;22.472;2022-12-22T00:54:28;99742.69;;;1.27;100.00
34034;BME280;63481;52.588;22.472;2022-12-22T00:55:39;99745.83;;;1.30;100.00
34034;BME280;63481;52.588;22.472;2022-12-22T00:56:48;99745.14;;;1.28;100.00
34034;BME280;63481;52.588;22.472;2022-12-22T00:57:57;99743.17;;;1.26;100.00
34034;BME280;63481;52.588;22.472;2022-12-22T00:59:08;99739.07;;;1.24;100.00
34034;BME280;63481;52.588;22.472;2022-12-22T01:00:18;99742.35;;;1.22;100.00
34034;BME280;63481;52.588;22.472;2022-12-22T01:01:30;99746.78;;;1.21;100.00
34034;BME280;63481;52.588;22.472;2022-12-22T01:02:38;99741.35;;;1.23;100.00
34034;BME280;63481;52.588;22.472;2022-12-22T01:03:50;99746.46;;;1.24;100.00
34034;BME280;63481;52.588;22.472;2022-12-22T01:04:59;99743.01;;;1.19;100.00
34034;BME280;63481;52.588;22.472;2022-12-22T01:06:11;99748.09;;;1.21;100.00
34034;BME280;63481;52.588;22.472;2022-12-22T01:07:21;99745.29;;;1.23;100.00
34034;BME280;63481;52.588;22.472;2022-12-22T01:08:33;99745.46;;;1.25;100.00
34034;BME280;63481;52.588;22.472;2022-12-22T01:09:44;99741.69;;;1.24;100.00
34034;BME280;63481;52.588;22.472;2022-12-22T01:10:54;99744.98;;;1.26;100.00
34034;BME280;63481;52.588;22.472;2022-12-22T01:12:04;99742.23;;;1.35;100.00
34034;BME280;63481;52.588;22.472;2022-12-22T01:13:14;99745.31;;;1.31;100.00
34034;BME280;63481;52.588;22.472;2022-12-22T01:14:22;99736.80;;;1.37;100.00
34034;BME280;63481;52.588;22.472;2022-12-22T01:15:31;99737.47;;;1.35;100.00
34034;BME280;63481;52.588;22.472;2022-12-22T01:16:39;99738.46;;;1.38;100.00
34034;BME280;63481;52.588;22.472;2022-12-22T01:17:48;99736.83;;;1.41;100.00
34034;BME280;63481;52.588;22.472;2022-12-22T01:18:56;99734.34;;;1.39;100.00
34034;BME280;63481;52.588;22.472;2022-12-22T01:20:05;99730.41;;;1.35;100.00
34034;BME280;63481;52.588;22.472;2022-12-22T01:21:17;99735.00;;;1.37;100.00
34034;BME280;63481;52.588;22.472;2022-12-22T01:22:27;99734.18;;;1.37;100.00
34034;BME280;63481;52.588;22.472;2022-12-22T01:23:37;99732.87;;;1.33;100.00
34034;BME280;63481;52.588;22.472;2022-12-22T01:24:45;99742.72;;;1.35;100.00
34034;BME280;63481;52.588;22.472;2022-12-22T01:25:54;99740.09;;;1.39;100.00
34034;BME280;63481;52.588;22.472;2022-12-22T01:27:03;99732.74;;;1.46;100.00
34034;BME280;63481;52.588;22.472;2022-12-22T01:28:14;99733.05;;;1.47;100.00
34034;BME280;63481;52.588;22.472;2022-12-22T01:29:23;99736.51;;;1.48;100.00
34034;BME280;63481;52.588;22.472;2022-12-22T01:30:31;99732.08;;;1.48;100.00
34034;BME280;63481;52.588;22.472;2022-12-22T01:31:40;99727.82;;;1.51;100.00
34034;BME280;63481;52.588;22.472;2022-12-22T01:32:49;99732.56;;;1.48;100.00
34034;BME280;63481;52.588;22.472;2022-12-22T01:33:57;99732.25;;;1.47;100.00
34034;BME280;63481;52.588;22.472;2022-12-22T01:35:09;99732.56;;;1.48;100.00
34034;BME280;63481;52.588;22.472;2022-12-22T01:36:17;99735.86;;;1.46;100.00
34034;BME280;63481;52.588;22.472;2022-12-22T01:37:25;99730.28;;;1.53;100.00
34034;BME280;63481;52.588;22.472;2022-12-22T01:38:34;99725.36;;;1.54;100.00
34034;BME280;63481;52.588;22.472;2022-12-22T01:39:43;99734.53;;;1.50;100.00
34034;BME280;63481;52.588;22.472;2022-12-22T01:40:56;99733.91;;;1.52;100.00
34034;BME280;63481;52.588;22.472;2022-12-22T01:42:08;99734.05;;;1.50;100.00
34034;BME280;63481;52.588;22.472;2022-12-22T01:43:25;99734.70;;;1.48;100.00
34034;BME280;63481;52.588;22.472;2022-12-22T01:44:33;99736.99;;;1.47;100.00
34034;BME280;63481;52.588;22.472;2022-12-22T01:45:45;99741.94;;;1.46;100.00
34034;BME280;63481;52.588;22.472;2022-12-22T01:47:17;99740.28;;;1.45;100.00
34034;BME280;63481;52.588;22.472;2022-12-22T01:48:11;99740.45;;;1.48;100.00
34034;BME280;63481;52.588;22.472;2022-12-22T01:49:20;99739.13;;;1.48;100.00
34034;BME280;63481;52.588;22.472;2022-12-22T01:50:32;99743.42;;;1.49;100.00
34034;BME280;63481;52.588;22.472;2022-12-22T01:51:41;99740.14;;;1.47;100.00
34034;BME280;63481;52.588;22.472;2022-12-22T01:52:52;99742.59;;;1.48;100.00
34034;BME280;63481;52.588;22.472;2022-12-22T01:54:01;99746.05;;;1.49;100.00
34034;BME280;63481;52.588;22.472;2022-12-22T01:55:13;99746.17;;;1.39;100.00
34034;BME280;63481;52.588;22.472;2022-12-22T01:56:22;99747.34;;;1.41;100.00
34034;BME280;63481;52.588;22.472;2022-12-22T01:57:31;99742.25;;;1.43;100.00
34034;BME280;63481;52.588;22.472;2022-12-22T01:58:44;99740.77;;;1.41;100.00
34034;BME280;63481;52.588;22.472;2022-12-22T01:59:53;99744.56;;;1.46;100.00
34034;BME280;63481;52.588;22.472;2022-12-22T02:01:02;99744.56;;;1.46;100.00
34034;BME280;63481;52.588;22.472;2022-12-22T02:02:11;99745.34;;;1.39;100.00
34034;BME280;63481;52.588;22.472;2022-12-22T02:03:21;99741.91;;;1.42;100.00
34034;BME280;63481;52.588;22.472;2022-12-22T02:04:35;99738.97;;;1.41;100.00
34034;BME280;63481;52.588;22.472;2022-12-22T02:05:54;99735.52;;;1.41;100.00
34034;BME280;63481;52.588;22.472;2022-12-22T02:07:03;99733.69;;;1.37;100.00
34034;BME280;63481;52.588;22.472;2022-12-22T02:08:19;99738.28;;;1.39;100.00
34034;BME280;63481;52.588;22.472;2022-12-22T02:15:35;99741.23;;;1.36;100.00
34034;BME280;63481;52.588;22.472;2022-12-22T02:21:02;99738.45;;;1.42;100.00
34034;BME280;63481;52.588;22.472;2022-12-22T02:22:38;99741.74;;;1.40;100.00
34034;BME280;63481;52.588;22.472;2022-12-22T02:25:18;99733.03;;;1.39;100.00
34034;BME280;63481;52.588;22.472;2022-12-22T02:27:46;99730.09;;;1.42;100.00
34034;BME280;63481;52.588;22.472;2022-12-22T02:28:56;99726.33;;;1.41;100.00
34034;BME280;63481;52.588;22.472;2022-12-22T02:30:06;99729.12;;;1.43;100.00
34034;BME280;63481;52.588;22.472;2022-12-22T02:31:15;99723.87;;;1.43;100.00
34034;BME280;63481;52.588;22.472;2022-12-22T02:32:24;99721.55;;;1.40;100.00
34034;BME280;63481;52.588;22.472;2022-12-22T02:33:33;99725.64;;;1.39;100.00
34034;BME280;63481;52.588;22.472;2022-12-22T02:34:42;99727.95;;;1.38;100.00
34034;BME280;63481;52.588;22.472;2022-12-22T02:36:04;99733.89;;;1.44;100.00
34034;BME280;63481;52.588;22.472;2022-12-22T02:38:48;99720.60;;;1.49;100.00
34034;BME280;63481;52.588;22.472;2022-12-22T02:39:56;99730.25;;;1.45;100.00
34034;BME280;63481;52.588;22.472;2022-12-22T02:44:26;99729.07;;;1.31;100.00
34034;BME280;63481;52.588;22.472;2022-12-22T02:45:43;99727.08;;;1.25;100.00
34034;BME280;63481;52.588;22.472;2022-12-22T02:47:00;99731.19;;;1.24;100.00
34034;BME280;63481;52.588;22.472;2022-12-22T02:48:19;99727.28;;;1.28;100.00
34034;BME280;63481;52.588;22.472;2022-12-22T02:49:39;99727.76;;;1.31;100.00
34034;BME280;63481;52.588;22.472;2022-12-22T02:50:53;99725.13;;;1.31;100.00
34034;BME280;63481;52.588;22.472;2022-12-22T02:52:09;99727.45;;;1.30;100.00
34034;BME280;63481;52.588;22.472;2022-12-22T02:53:14;99730.90;;;1.35;100.00
34034;BME280;63481;52.588;22.472;2022-12-22T02:54:27;99728.76;;;1.34;100.00
34034;BME280;63481;52.588;22.472;2022-12-22T02:55:36;99732.38;;;1.37;100.00
34034;BME280;63481;52.588;22.472;2022-12-22T02:56:46;99734.20;;;1.41;100.00
34034;BME280;63481;52.588;22.472;2022-12-22T02:57:59;99730.94;;;1.51;100.00
34034;BME280;63481;52.588;22.472;2022-12-22T02:59:08;99721.59;;;1.56;100.00
34034;BME280;63481;52.588;22.472;2022-12-22T03:00:18;99734.39;;;1.51;100.00
34034;BME280;63481;52.588;22.472;2022-12-22T03:01:26;99727.63;;;1.45;100.00
34034;BME280;63481;52.588;22.472;2022-12-22T03:02:35;99726.16;;;1.38;100.00
34034;BME280;63481;52.588;22.472;2022-12-22T03:03:45;99727.16;;;1.41;100.00
34034;BME280;63481;52.588;22.472;2022-12-22T03:04:54;99728.09;;;1.36;100.00
34034;BME280;63481;52.588;22.472;2022-12-22T03:06:04;99733.04;;;1.35;100.00
34034;BME280;63481;52.588;22.472;2022-12-22T03:07:13;99734.66;;;1.36;100.00
34034;BME280;63481;52.588;22.472;2022-12-22T03:08:21;99732.70;;;1.34;100.00
34034;BME280;63481;52.588;22.472;2022-12-22T03:09:31;99733.20;;;1.38;100.00
34034;BME280;63481;52.588;22.472;2022-12-22T03:10:43;99731.55;;;1.37;100.00
34034;BME280;63481;52.588;22.472;2022-12-22T03:11:51;99735.84;;;1.38;100.00
34034;BME280;63481;52.588;22.472;2022-12-22T03:13:00;99725.95;;;1.32;100.00
34034;BME280;63481;52.588;22.472;2022-12-22T03:14:09;99728.91;;;1.29;100.00
34034;BME280;63481;52.588;22.472;2022-12-22T03:15:18;99735.81;;;1.30;100.00
34034;BME280;63481;52.588;22.472;2022-12-22T03:16:28;99728.91;;;1.29;100.00
34034;BME280;63481;52.588;22.472;2022-12-22T03:17:36;99727.94;;;1.30;100.00
34034;BME280;63481;52.588;22.472;2022-12-22T03:18:45;99730.22;;;1.29;100.00
34034;BME280;63481;52.588;22.472;2022-12-22T03:19:54;99727.45;;;1.30;100.00
34034;BME280;63481;52.588;22.472;2022-12-22T03:21:03;99725.47;;;1.32;100.00
34034;BME280;63481;52.588;22.472;2022-12-22T03:22:12;99724.99;;;1.33;100.00
34034;BME280;63481;52.588;22.472;2022-12-22T03:23:21;99727.30;;;1.36;100.00
34034;BME280;63481;52.588;22.472;2022-12-22T03:24:30;99721.36;;;1.34;100.00
34034;BME280;63481;52.588;22.472;2022-12-22T03:25:39;99729.91;;;1.32;100.00
34034;BME280;63481;52.588;22.472;2022-12-22T03:26:42;99721.37;;;1.30;100.00
34034;BME280;63481;52.588;22.472;2022-12-22T03:27:33;99712.48;;;1.31;100.00
34034;BME280;63481;52.588;22.472;2022-12-22T03:28:26;99716.42;;;1.31;100.00
34034;BME280;63481;52.588;22.472;2022-12-22T03:29:16;99714.46;;;1.25;100.00
34034;BME280;63481;52.588;22.472;2022-12-22T03:30:07;99715.43;;;1.24;100.00
34034;BME280;63481;52.588;22.472;2022-12-22T03:31:00;99715.27;;;1.21;100.00
34034;BME280;63481;52.588;22.472;2022-12-22T03:31:51;99710.98;;;1.20;100.00
34034;BME280;63481;52.588;22.472;2022-12-22T03:32:41;99707.38;;;1.25;100.00
34034;BME280;63481;52.588;22.472;2022-12-22T03:33:32;99714.12;;;1.24;100.00
34034;BME280;63481;52.588;22.472;2022-12-22T03:34:23;99713.15;;;1.25;100.00
34034;BME280;63481;52.588;22.472;2022-12-22T03:35:13;99708.69;;;1.25;100.00
34034;BME280;63481;52.588;22.472;2022-12-22T03:36:04;99714.77;;;1.26;100.00
34034;BME280;63481;52.588;22.472;2022-12-22T03:36:55;99711.66;;;1.26;100.00
34034;BME280;63481;52.588;22.472;2022-12-22T03:37:45;99705.09;;;1.26;100.00
34034;BME280;63481;52.588;22.472;2022-12-22T03:38:35;99712.31;;;1.28;100.00
34034;BME280;63481;52.588;22.472;2022-12-22T03:39:29;99705.27;;;1.29;100.00
34034;BME280;63481;52.588;22.472;2022-12-22T03:40:18;99708.23;;;1.30;100.00
34034;BME280;63481;52.588;22.472;2022-12-22T03:41:08;99708.89;;;1.28;100.00
34034;BME280;63481;52.588;22.472;2022-12-22T03:42:01;99713.48;;;1.30;100.00
34034;BME280;63481;52.588;22.472;2022-12-22T03:43:11;99708.74;;;1.33;100.00
34034;BME280;63481;52.588;22.472;2022-12-22T03:44:20;99701.85;;;1.40;100.00
34034;BME280;63481;52.588;22.472;2022-12-22T03:45:29;99707.42;;;1.37;100.00
34034;BME280;63481;52.588;22.472;2022-12-22T03:46:37;99723.67;;;1.37;100.00
34034;BME280;63481;52.588;22.472;2022-12-22T03:47:32;99729.60;;;1.43;100.00
34034;BME280;63481;52.588;22.472;2022-12-22T03:48:23;99727.00;;;1.47;100.00
34034;BME280;63481;52.588;22.472;2022-12-22T03:49:13;99732.56;;;1.48;100.00
34034;BME280;63481;52.588;22.472;2022-12-22T03:50:07;99733.22;;;1.50;100.00
34034;BME280;63481;52.588;22.472;2022-12-22T03:50:58;99730.62;;;1.54;100.00
34034;BME280;63481;52.588;22.472;2022-12-22T03:51:48;99732.09;;;1.56;100.00
34034;BME280;63481;52.588;22.472;2022-12-22T03:52:39;99736.67;;;1.50;100.00
34034;BME280;63481;52.588;22.472;2022-12-22T03:53:29;99734.39;;;1.51;100.00
34034;BME280;63481;52.588;22.472;2022-12-22T03:54:20;99733.73;;;1.49;100.00
34034;BME280;63481;52.588;22.472;2022-12-22T03:55:11;99729.94;;;1.48;100.00
34034;BME280;63481;52.588;22.472;2022-12-22T03:56:02;99727.00;;;1.47;100.00
34034;BME280;63481;52.588;22.472;2022-12-22T03:56:54;99726.17;;;1.50;100.00
34034;BME280;63481;52.588;22.472;2022-12-22T03:57:44;99730.59;;;1.50;100.00
34034;BME280;63481;52.588;22.472;2022-12-22T03:58:36;99729.63;;;1.47;100.00
34034;BME280;63481;52.588;22.472;2022-12-22T03:59:27;99724.69;;;1.48;100.00
34034;BME280;63481;52.588;22.472;2022-12-22T04:00:17;99716.64;;;1.45;100.00
34034;BME280;63481;52.588;22.472;2022-12-22T04:01:08;99712.53;;;1.43;100.00
34034;BME280;63481;52.588;22.472;2022-12-22T04:01:58;99714.35;;;1.46;100.00
34034;BME280;63481;52.588;22.472;2022-12-22T04:02:49;99710.89;;;1.46;100.00
34034;BME280;63481;52.588;22.472;2022-12-22T04:03:39;99710.89;;;1.46;100.00
34034;BME280;63481;52.588;22.472;2022-12-22T04:04:32;99709.23;;;1.45;100.00
34034;BME280;63481;52.588;22.472;2022-12-22T04:05:22;99711.04;;;1.44;100.00
34034;BME280;63481;52.588;22.472;2022-12-22T04:06:12;99711.22;;;1.43;100.00
34034;BME280;63481;52.588;22.472;2022-12-22T04:07:03;99710.55;;;1.45;100.00
34034;BME280;63481;52.588;22.472;2022-12-22T04:07:53;99704.98;;;1.44;100.00
34034;BME280;63481;52.588;22.472;2022-12-22T04:08:44;99701.05;;;1.44;100.00
34034;BME280;63481;52.588;22.472;2022-12-22T04:09:34;99699.39;;;1.43;100.00
34034;BME280;63481;52.588;22.472;2022-12-22T04:10:25;99698.08;;;1.43;100.00
34034;BME280;63481;52.588;22.472;2022-12-22T04:11:34;99700.70;;;1.43;100.00
34034;BME280;63481;52.588;22.472;2022-12-22T04:12:42;99698.56;;;1.42;100.00
34034;BME280;63481;52.588;22.472;2022-12-22T04:13:45;99705.64;;;1.46;100.00
34034;BME280;63481;52.588;22.472;2022-12-22T04:14:36;99706.95;;;1.50;100.00
34034;BME280;63481;52.588;22.472;2022-12-22T04:15:29;99698.75;;;1.49;100.00
34034;BME280;63481;52.588;22.472;2022-12-22T04:16:20;99700.38;;;1.50;100.00
34034;BME280;63481;52.588;22.472;2022-12-22T04:17:11;99693.64;;;1.47;100.00
34034;BME280;63481;52.588;22.472;2022-12-22T04:18:01;99701.84;;;1.44;100.00
34034;BME280;63481;52.588;22.472;2022-12-22T04:18:52;99701.67;;;1.42;100.00
34034;BME280;63481;52.588;22.472;2022-12-22T04:19:42;99699.73;;;1.44;100.00
34034;BME280;63481;52.588;22.472;2022-12-22T04:20:32;99703.50;;;1.45;100.00
34034;BME280;63481;52.588;22.472;2022-12-22T04:21:23;99695.13;;;1.46;100.00
34034;BME280;63481;52.588;22.472;2022-12-22T04:22:14;99700.70;;;1.43;100.00
34034;BME280;63481;52.588;22.472;2022-12-22T04:23:04;99704.67;;;1.47;100.00
34034;BME280;63481;52.588;22.472;2022-12-22T04:23:54;99704.84;;;1.49;100.00
34034;BME280;63481;52.588;22.472;2022-12-22T04:24:47;99699.24;;;1.48;100.00
34034;BME280;63481;52.588;22.472;2022-12-22T04:25:37;99697.13;;;1.52;100.00
34034;BME280;63481;52.588;22.472;2022-12-22T04:26:27;99692.52;;;1.54;100.00
34034;BME280;63481;52.588;22.472;2022-12-22T04:27:17;99693.34;;;1.54;100.00
34034;BME280;63481;52.588;22.472;2022-12-22T04:28:07;99691.69;;;1.53;100.00
34034;BME280;63481;52.588;22.472;2022-12-22T04:28:57;99695.30;;;1.48;100.00
34034;BME280;63481;52.588;22.472;2022-12-22T04:29:48;99693.48;;;1.45;100.00
34034;BME280;63481;52.588;22.472;2022-12-22T04:30:38;99700.73;;;1.47;100.00
34034;BME280;63481;52.588;22.472;2022-12-22T04:31:31;99696.13;;;1.49;100.00
34034;BME280;63481;52.588;22.472;2022-12-22T04:32:21;99698.59;;;1.46;100.00
34034;BME280;63481;52.588;22.472;2022-12-22T04:33:11;99701.22;;;1.46;100.00
34034;BME280;63481;52.588;22.472;2022-12-22T04:34:01;99703.36;;;1.47;100.00
34034;BME280;63481;52.588;22.472;2022-12-22T04:34:51;99699.75;;;1.52;100.00
34034;BME280;63481;52.588;22.472;2022-12-22T04:35:41;99699.91;;;1.54;100.00
34034;BME280;63481;52.588;22.472;2022-12-22T04:36:34;99698.11;;;1.55;100.00
34034;BME280;63481;52.588;22.472;2022-12-22T04:37:24;99709.11;;;1.54;100.00
34034;BME280;63481;52.588;22.472;2022-12-22T04:38:15;99712.90;;;1.60;100.00
34034;BME280;63481;52.588;22.472;2022-12-22T04:39:05;99711.58;;;1.64;100.00
34034;BME280;63481;52.588;22.472;2022-12-22T04:39:58;99707.32;;;1.63;100.00
34034;BME280;63481;52.588;22.472;2022-12-22T04:40:50;99704.19;;;1.59;100.00
34034;BME280;63481;52.588;22.472;2022-12-22T04:41:40;99713.38;;;1.63;100.00
34034;BME280;63481;52.588;22.472;2022-12-22T04:42:31;99709.77;;;1.64;100.00
34034;BME280;63481;52.588;22.472;2022-12-22T04:43:21;99712.89;;;1.64;100.00
34034;BME280;63481;52.588;22.472;2022-12-22T04:44:12;99706.80;;;1.63;100.00
34034;BME280;63481;52.588;22.472;2022-12-22T04:45:05;99710.58;;;1.61;100.00
34034;BME280;63481;52.588;22.472;2022-12-22T04:45:59;99709.75;;;1.60;100.00
34034;BME280;63481;52.588;22.472;2022-12-22T04:46:49;99713.70;;;1.56;100.00
34034;BME280;63481;52.588;22.472;2022-12-22T04:47:39;99707.45;;;1.53;100.00
34034;BME280;63481;52.588;22.472;2022-12-22T04:48:30;99709.42;;;1.55;100.00
34034;BME280;63481;52.588;22.472;2022-12-22T04:49:20;99707.30;;;1.59;100.00
34034;BME280;63481;52.588;22.472;2022-12-22T04:50:11;99701.38;;;1.61;100.00
34034;BME280;63481;52.588;22.472;2022-12-22T04:51:02;99704.02;;;1.57;100.00
34034;BME280;63481;52.588;22.472;2022-12-22T04:51:53;99702.55;;;1.54;100.00
34034;BME280;63481;52.588;22.472;2022-12-22T04:52:44;99700.23;;;1.51;100.00
34034;BME280;63481;52.588;22.472;2022-12-22T04:53:34;99701.22;;;1.46;100.00
34034;BME280;63481;52.588;22.472;2022-12-22T04:54:25;99703.67;;;1.48;100.00
34034;BME280;63481;52.588;22.472;2022-12-22T04:55:17;99701.84;;;1.44;100.00
34034;BME280;63481;52.588;22.472;2022-12-22T04:56:08;99695.45;;;1.43;100.00
34034;BME280;63481;52.588;22.472;2022-12-22T04:56:58;99696.11;;;1.45;100.00
34034;BME280;63481;52.588;22.472;2022-12-22T04:57:48;99695.62;;;1.45;100.00
34034;BME280;63481;52.588;22.472;2022-12-22T04:58:39;99695.28;;;1.44;100.00
34034;BME280;63481;52.588;22.472;2022-12-22T04:59:30;99696.28;;;1.43;100.00
34034;BME280;63481;52.588;22.472;2022-12-22T05:00:21;99696.94;;;1.41;100.00
34034;BME280;63481;52.588;22.472;2022-12-22T05:01:15;99698.91;;;1.43;100.00
34034;BME280;63481;52.588;22.472;2022-12-22T05:02:06;99697.44;;;1.49;100.00
34034;BME280;63481;52.588;22.472;2022-12-22T05:02:57;99695.30;;;1.48;100.00
34034;BME280;63481;52.588;22.472;2022-12-22T05:03:47;99695.96;;;1.46;100.00
34034;BME280;63481;52.588;22.472;2022-12-22T05:04:37;99701.05;;;1.44;100.00
34034;BME280;63481;52.588;22.472;2022-12-22T05:05:28;99698.56;;;1.42;100.00
34034;BME280;63481;52.588;22.472;2022-12-22T05:06:19;99702.02;;;1.43;100.00
34034;BME280;63481;52.588;22.472;2022-12-22T05:07:09;99702.00;;;1.39;100.00
34034;BME280;63481;52.588;22.472;2022-12-22T05:07:59;99704.63;;;1.39;100.00
34034;BME280;63481;52.588;22.472;2022-12-22T05:08:51;99705.63;;;1.38;100.00
34034;BME280;63481;52.588;22.472;2022-12-22T05:09:44;99703.66;;;1.40;100.00
34034;BME280;63481;52.588;22.472;2022-12-22T05:10:34;99701.85;;;1.40;100.00
34034;BME280;63481;52.588;22.472;2022-12-22T05:11:24;99701.67;;;1.42;100.00
34034;BME280;63481;52.588;22.472;2022-12-22T05:12:14;99699.88;;;1.42;100.00
34034;BME280;63481;52.588;22.472;2022-12-22T05:13:23;99701.69;;;1.38;100.00
34034;BME280;63481;52.588;22.472;2022-12-22T05:14:13;99704.14;;;1.35;100.00
34034;BME280;63481;52.588;22.472;2022-12-22T05:15:05;99704.14;;;1.35;100.00
34034;BME280;63481;52.588;22.472;2022-12-22T05:16:03;99697.09;;;1.36;100.00
34034;BME280;63481;52.588;22.472;2022-12-22T05:16:54;99700.38;;;1.38;100.00
34034;BME280;63481;52.588;22.472;2022-12-22T05:17:45;99698.57;;;1.38;100.00
34034;BME280;63481;52.588;22.472;2022-12-22T05:18:36;99699.23;;;1.40;100.00
34034;BME280;63481;52.588;22.472;2022-12-22T05:19:32;99697.42;;;1.41;100.00
34034;BME280;63481;52.588;22.472;2022-12-22T05:20:22;99702.99;;;1.42;100.00
34034;BME280;63481;52.588;22.472;2022-12-22T05:21:16;99698.42;;;1.44;100.00
34034;BME280;63481;52.588;22.472;2022-12-22T05:22:06;99697.09;;;1.48;100.00
34034;BME280;63481;52.588;22.472;2022-12-22T05:22:57;99697.92;;;1.48;100.00
34034;BME280;63481;52.588;22.472;2022-12-22T05:23:48;99695.64;;;1.49;100.00
34034;BME280;63481;52.588;22.472;2022-12-22T05:24:39;99694.65;;;1.46;100.00
34034;BME280;63481;52.588;22.472;2022-12-22T05:25:29;99686.08;;;1.44;100.00
34034;BME280;63481;52.588;22.472;2022-12-22T05:26:19;99691.02;;;1.47;100.00
34034;BME280;63481;52.588;22.472;2022-12-22T05:27:10;99691.02;;;1.43;100.00
34034;BME280;63481;52.588;22.472;2022-12-22T05:28:01;99687.56;;;1.35;100.00
34034;BME280;63481;52.588;22.472;2022-12-22T05:28:51;99687.72;;;1.37;100.00
34034;BME280;63481;52.588;22.472;2022-12-22T05:29:44;99687.55;;;1.39;100.00
34034;BME280;63481;52.588;22.472;2022-12-22T05:30:35;99687.23;;;1.42;100.00
34034;BME280;63481;52.588;22.472;2022-12-22T05:31:25;99683.80;;;1.33;100.00
34034;BME280;63481;52.588;22.472;2022-12-22T05:32:16;99687.87;;;1.32;100.00
34034;BME280;63481;52.588;22.472;2022-12-22T05:33:06;99685.91;;;1.34;100.00
34034;BME280;63481;52.588;22.472;2022-12-22T05:33:56;99683.30;;;1.38;100.00
34034;BME280;63481;52.588;22.472;2022-12-22T05:34:46;99674.77;;;1.36;100.00
34034;BME280;63481;52.588;22.472;2022-12-22T05:35:37;99678.84;;;1.34;100.00
34034;BME280;63481;52.588;22.472;2022-12-22T05:36:27;99679.67;;;1.35;100.00
34034;BME280;63481;52.588;22.472;2022-12-22T05:37:18;99684.27;;;1.37;100.00
34034;BME280;63481;52.588;22.472;2022-12-22T05:38:11;99682.95;;;1.37;100.00
34034;BME280;63481;52.588;22.472;2022-12-22T05:39:02;99681.98;;;1.38;100.00